sensor_id;sensor_type;location;lat;lon;timestamp;P1;durP1;ratioP1;P2;durP2;ratioP2
70663;SDS011;58237;57.996;56.290;2023-09-19T00:02:02;5.95;;;2.47;;
70663;SDS011;58237;57.996;56.290;2023-09-19T00:04:33;4.90;;;2.10;;
70663;SDS011;58237;57.996;56.290;2023-09-19T00:06:59;5.35;;;2.38;;
70663;SDS011;58237;57.996;56.290;2023-09-19T00:09:24;5.35;;;2.30;;
70663;SDS011;58237;57.996;56.290;2023-09-19T00:11:53;6.60;;;2.28;;
70663;SDS011;58237;57.996;56.290;2023-09-19T00:14:19;5.00;;;1.80;;
70663;SDS011;58237;57.996;56.290;2023-09-19T00:16:45;4.35;;;1.80;;
70663;SDS011;58237;57.996;56.290;2023-09-19T00:19:11;7.47;;;2.42;;
70663;SDS011;58237;57.996;56.290;2023-09-19T00:21:37;4.57;;;1.70;;
70663;SDS011;58237;57.996;56.290;2023-09-19T00:24:04;5.93;;;2.30;;
70663;SDS011;58237;57.996;56.290;2023-09-19T00:26:31;4.75;;;2.17;;
70663;SDS011;58237;57.996;56.290;2023-09-19T00:28:57;4.90;;;1.80;;
70663;SDS011;58237;57.996;56.290;2023-09-19T00:31:22;4.38;;;1.80;;
70663;SDS011;58237;57.996;56.290;2023-09-19T00:33:48;6.28;;;2.42;;
70663;SDS011;58237;57.996;56.290;2023-09-19T00:36:14;8.27;;;2.63;;
70663;SDS011;58237;57.996;56.290;2023-09-19T00:38:39;4.20;;;1.63;;
70663;SDS011;58237;57.996;56.290;2023-09-19T00:41:05;6.05;;;2.20;;
70663;SDS011;58237;57.996;56.290;2023-09-19T00:43:32;4.50;;;1.73;;
70663;SDS011;58237;57.996;56.290;2023-09-19T00:46:00;8.45;;;2.95;;
70663;SDS011;58237;57.996;56.290;2023-09-19T00:48:28;3.88;;;1.55;;
70663;SDS011;58237;57.996;56.290;2023-09-19T00:50:54;4.47;;;1.65;;
70663;SDS011;58237;57.996;56.290;2023-09-19T00:53:20;3.05;;;1.38;;
70663;SDS011;58237;57.996;56.290;2023-09-19T00:55:48;6.53;;;2.20;;
70663;SDS011;58237;57.996;56.290;2023-09-19T00:58:16;5.57;;;2.40;;
70663;SDS011;58237;57.996;56.290;2023-09-19T01:00:41;5.07;;;2.00;;
70663;SDS011;58237;57.996;56.290;2023-09-19T01:03:10;6.22;;;2.67;;
70663;SDS011;58237;57.996;56.290;2023-09-19T01:05:36;4.72;;;1.90;;
70663;SDS011;58237;57.996;56.290;2023-09-19T01:08:01;5.93;;;2.28;;
70663;SDS011;58237;57.996;56.290;2023-09-19T01:10:27;7.13;;;2.58;;
70663;SDS011;58237;57.996;56.290;2023-09-19T01:13:09;6.25;;;2.50;;
70663;SDS011;58237;57.996;56.290;2023-09-19T01:15:59;4.82;;;2.33;;
70663;SDS011;58237;57.996;56.290;2023-09-19T01:18:45;7.25;;;2.58;;
70663;SDS011;58237;57.996;56.290;2023-09-19T01:28:58;4.88;;;1.95;;
70663;SDS011;58237;57.996;56.290;2023-09-19T01:31:28;4.50;;;1.70;;
70663;SDS011;58237;57.996;56.290;2023-09-19T01:33:58;3.58;;;1.60;;
70663;SDS011;58237;57.996;56.290;2023-09-19T01:36:28;4.10;;;1.42;;
70663;SDS011;58237;57.996;56.290;2023-09-19T01:38:54;4.55;;;1.73;;
70663;SDS011;58237;57.996;56.290;2023-09-19T01:41:33;3.67;;;1.48;;
70663;SDS011;58237;57.996;56.290;2023-09-19T01:44:01;5.28;;;2.08;;
70663;SDS011;58237;57.996;56.290;2023-09-19T01:46:30;4.78;;;1.80;;
70663;SDS011;58237;57.996;56.290;2023-09-19T01:54:04;5.13;;;2.08;;
70663;SDS011;58237;57.996;56.290;2023-09-19T01:56:35;5.22;;;1.92;;
70663;SDS011;58237;57.996;56.290;2023-09-19T01:59:08;5.00;;;1.95;;
70663;SDS011;58237;57.996;56.290;2023-09-19T02:01:36;5.53;;;2.10;;
70663;SDS011;58237;57.996;56.290;2023-09-19T02:04:02;6.07;;;2.33;;
70663;SDS011;58237;57.996;56.290;2023-09-19T02:06:28;4.15;;;1.77;;
70663;SDS011;58237;57.996;56.290;2023-09-19T02:08:54;4.57;;;1.50;;
70663;SDS011;58237;57.996;56.290;2023-09-19T02:11:19;4.10;;;1.48;;
70663;SDS011;58237;57.996;56.290;2023-09-19T02:13:45;5.85;;;2.50;;
70663;SDS011;58237;57.996;56.290;2023-09-19T02:16:12;5.25;;;1.80;;
70663;SDS011;58237;57.996;56.290;2023-09-19T02:18:38;3.80;;;1.50;;
70663;SDS011;58237;57.996;56.290;2023-09-19T02:21:04;3.90;;;1.58;;
70663;SDS011;58237;57.996;56.290;2023-09-19T02:23:32;3.58;;;1.50;;
70663;SDS011;58237;57.996;56.290;2023-09-19T02:25:58;3.88;;;1.63;;
70663;SDS011;58237;57.996;56.290;2023-09-19T02:28:26;5.65;;;1.80;;
70663;SDS011;58237;57.996;56.290;2023-09-19T02:30:55;4.82;;;1.73;;
70663;SDS011;58237;57.996;56.290;2023-09-19T02:33:21;6.30;;;2.08;;
70663;SDS011;58237;57.996;56.290;2023-09-19T02:35:46;4.55;;;1.73;;
70663;SDS011;58237;57.996;56.290;2023-09-19T02:38:12;4.50;;;2.08;;
70663;SDS011;58237;57.996;56.290;2023-09-19T02:40:38;5.95;;;2.50;;
70663;SDS011;58237;57.996;56.290;2023-09-19T02:43:03;7.38;;;2.85;;
70663;SDS011;58237;57.996;56.290;2023-09-19T02:45:30;5.13;;;2.28;;
70663;SDS011;58237;57.996;56.290;2023-09-19T02:47:56;5.95;;;2.70;;
70663;SDS011;58237;57.996;56.290;2023-09-19T02:50:22;5.63;;;2.50;;
70663;SDS011;58237;57.996;56.290;2023-09-19T02:52:47;6.25;;;2.10;;
70663;SDS011;58237;57.996;56.290;2023-09-19T02:55:14;5.70;;;1.88;;
70663;SDS011;58237;57.996;56.290;2023-09-19T02:57:46;4.28;;;1.80;;
70663;SDS011;58237;57.996;56.290;2023-09-19T03:00:12;5.35;;;2.35;;
70663;SDS011;58237;57.996;56.290;2023-09-19T03:02:38;5.72;;;1.75;;
70663;SDS011;58237;57.996;56.290;2023-09-19T03:05:06;4.75;;;1.80;;
70663;SDS011;58237;57.996;56.290;2023-09-19T03:07:32;6.95;;;2.50;;
70663;SDS011;58237;57.996;56.290;2023-09-19T03:09:58;5.13;;;2.40;;
70663;SDS011;58237;57.996;56.290;2023-09-19T03:12:25;5.07;;;1.73;;
70663;SDS011;58237;57.996;56.290;2023-09-19T03:14:51;5.50;;;2.38;;
70663;SDS011;58237;57.996;56.290;2023-09-19T03:17:17;3.28;;;1.30;;
70663;SDS011;58237;57.996;56.290;2023-09-19T03:19:45;2.30;;;1.02;;
70663;SDS011;58237;57.996;56.290;2023-09-19T03:22:10;4.68;;;1.75;;
70663;SDS011;58237;57.996;56.290;2023-09-19T03:24:36;3.90;;;1.40;;
70663;SDS011;58237;57.996;56.290;2023-09-19T03:27:03;4.13;;;1.55;;
70663;SDS011;58237;57.996;56.290;2023-09-19T03:29:28;3.42;;;1.35;;
70663;SDS011;58237;57.996;56.290;2023-09-19T03:31:54;3.72;;;1.30;;
70663;SDS011;58237;57.996;56.290;2023-09-19T03:34:20;4.68;;;1.60;;
70663;SDS011;58237;57.996;56.290;2023-09-19T03:36:46;4.05;;;1.50;;
70663;SDS011;58237;57.996;56.290;2023-09-19T03:39:12;4.25;;;1.40;;
70663;SDS011;58237;57.996;56.290;2023-09-19T03:41:37;3.45;;;1.50;;
70663;SDS011;58237;57.996;56.290;2023-09-19T03:44:04;3.63;;;1.42;;
70663;SDS011;58237;57.996;56.290;2023-09-19T03:46:29;6.03;;;1.45;;
70663;SDS011;58237;57.996;56.290;2023-09-19T03:48:55;6.82;;;1.27;;
70663;SDS011;58237;57.996;56.290;2023-09-19T03:51:21;1.63;;;0.80;;
70663;SDS011;58237;57.996;56.290;2023-09-19T03:53:47;4.63;;;1.48;;
70663;SDS011;58237;57.996;56.290;2023-09-19T03:56:14;4.10;;;1.45;;
70663;SDS011;58237;57.996;56.290;2023-09-19T03:58:40;2.83;;;1.10;;
70663;SDS011;58237;57.996;56.290;2023-09-19T04:01:05;2.95;;;1.27;;
70663;SDS011;58237;57.996;56.290;2023-09-19T04:03:34;4.45;;;1.60;;
70663;SDS011;58237;57.996;56.290;2023-09-19T04:06:11;3.13;;;1.13;;
70663;SDS011;58237;57.996;56.290;2023-09-19T04:08:37;5.63;;;1.35;;
70663;SDS011;58237;57.996;56.290;2023-09-19T04:11:03;6.30;;;1.70;;
70663;SDS011;58237;57.996;56.290;2023-09-19T04:13:28;3.15;;;1.20;;
70663;SDS011;58237;57.996;56.290;2023-09-19T04:15:55;4.78;;;1.20;;
70663;SDS011;58237;57.996;56.290;2023-09-19T04:18:21;5.70;;;1.20;;
70663;SDS011;58237;57.996;56.290;2023-09-19T04:20:51;2.63;;;1.05;;
70663;SDS011;58237;57.996;56.290;2023-09-19T04:23:17;3.90;;;1.38;;
70663;SDS011;58237;57.996;56.290;2023-09-19T04:25:43;2.47;;;0.90;;
70663;SDS011;58237;57.996;56.290;2023-09-19T04:28:11;3.92;;;1.10;;
70663;SDS011;58237;57.996;56.290;2023-09-19T04:30:37;4.03;;;1.30;;
70663;SDS011;58237;57.996;56.290;2023-09-19T04:33:03;3.35;;;1.00;;
70663;SDS011;58237;57.996;56.290;2023-09-19T04:35:29;3.30;;;0.93;;
70663;SDS011;58237;57.996;56.290;2023-09-19T04:37:57;2.80;;;0.90;;
70663;SDS011;58237;57.996;56.290;2023-09-19T04:40:23;2.88;;;1.00;;
70663;SDS011;58237;57.996;56.290;2023-09-19T04:42:53;2.33;;;0.93;;
70663;SDS011;58237;57.996;56.290;2023-09-19T04:45:22;2.10;;;0.90;;
70663;SDS011;58237;57.996;56.290;2023-09-19T04:47:47;2.45;;;1.10;;
70663;SDS011;58237;57.996;56.290;2023-09-19T04:50:16;3.55;;;1.02;;
70663;SDS011;58237;57.996;56.290;2023-09-19T04:52:42;2.38;;;0.90;;
70663;SDS011;58237;57.996;56.290;2023-09-19T04:55:15;2.67;;;1.00;;
70663;SDS011;58237;57.996;56.290;2023-09-19T04:57:43;3.28;;;1.05;;
70663;SDS011;58237;57.996;56.290;2023-09-19T05:00:10;3.13;;;1.20;;
70663;SDS011;58237;57.996;56.290;2023-09-19T05:02:40;3.63;;;1.13;;
70663;SDS011;58237;57.996;56.290;2023-09-19T05:05:06;1.85;;;0.70;;
70663;SDS011;58237;57.996;56.290;2023-09-19T05:07:32;1.35;;;0.63;;
70663;SDS011;58237;57.996;56.290;2023-09-19T05:09:59;2.10;;;0.55;;
70663;SDS011;58237;57.996;56.290;2023-09-19T05:12:26;1.42;;;0.55;;
70663;SDS011;58237;57.996;56.290;2023-09-19T05:14:51;3.47;;;0.75;;
70663;SDS011;58237;57.996;56.290;2023-09-19T05:17:17;2.00;;;0.60;;
70663;SDS011;58237;57.996;56.290;2023-09-19T05:19:42;3.03;;;0.70;;
70663;SDS011;58237;57.996;56.290;2023-09-19T05:22:08;1.67;;;0.60;;
70663;SDS011;58237;57.996;56.290;2023-09-19T05:24:33;2.38;;;0.50;;
70663;SDS011;58237;57.996;56.290;2023-09-19T05:26:59;4.28;;;0.88;;
70663;SDS011;58237;57.996;56.290;2023-09-19T05:29:26;0.52;;;0.38;;
70663;SDS011;58237;57.996;56.290;2023-09-19T05:31:51;1.30;;;0.45;;
70663;SDS011;58237;57.996;56.290;2023-09-19T05:34:18;1.42;;;0.52;;
70663;SDS011;58237;57.996;56.290;2023-09-19T05:36:44;3.28;;;0.63;;
70663;SDS011;58237;57.996;56.290;2023-09-19T05:39:10;1.55;;;0.68;;
70663;SDS011;58237;57.996;56.290;2023-09-19T05:41:36;1.17;;;0.50;;
70663;SDS011;58237;57.996;56.290;2023-09-19T05:44:05;1.55;;;0.40;;
70663;SDS011;58237;57.996;56.290;2023-09-19T05:46:32;1.08;;;0.40;;
70663;SDS011;58237;57.996;56.290;2023-09-19T05:48:58;0.85;;;0.40;;
70663;SDS011;58237;57.996;56.290;2023-09-19T05:51:23;0.90;;;0.30;;
70663;SDS011;58237;57.996;56.290;2023-09-19T05:53:50;0.40;;;0.30;;
70663;SDS011;58237;57.996;56.290;2023-09-19T05:56:16;1.45;;;0.35;;
70663;SDS011;58237;57.996;56.290;2023-09-19T05:58:44;2.10;;;0.40;;
70663;SDS011;58237;57.996;56.290;2023-09-19T06:01:10;1.33;;;0.35;;
70663;SDS011;58237;57.996;56.290;2023-09-19T06:03:35;0.38;;;0.30;;
70663;SDS011;58237;57.996;56.290;2023-09-19T06:06:01;0.93;;;0.40;;
70663;SDS011;58237;57.996;56.290;2023-09-19T06:08:27;1.52;;;0.50;;
70663;SDS011;58237;57.996;56.290;2023-09-19T06:10:53;0.88;;;0.50;;
70663;SDS011;58237;57.996;56.290;2023-09-19T06:13:19;1.50;;;0.50;;
70663;SDS011;58237;57.996;56.290;2023-09-19T06:15:45;6.88;;;0.68;;
70663;SDS011;58237;57.996;56.290;2023-09-19T06:18:12;0.75;;;0.40;;
70663;SDS011;58237;57.996;56.290;2023-09-19T06:20:48;2.00;;;0.40;;
70663;SDS011;58237;57.996;56.290;2023-09-19T06:23:16;1.30;;;0.40;;
70663;SDS011;58237;57.996;56.290;2023-09-19T06:25:42;1.38;;;0.50;;
70663;SDS011;58237;57.996;56.290;2023-09-19T06:28:08;1.67;;;0.50;;
70663;SDS011;58237;57.996;56.290;2023-09-19T06:30:37;1.10;;;0.30;;
70663;SDS011;58237;57.996;56.290;2023-09-19T06:33:05;0.77;;;0.40;;
70663;SDS011;58237;57.996;56.290;2023-09-19T06:35:35;1.13;;;0.40;;
70663;SDS011;58237;57.996;56.290;2023-09-19T06:38:03;2.50;;;0.50;;
70663;SDS011;58237;57.996;56.290;2023-09-19T06:40:29;1.10;;;0.40;;
70663;SDS011;58237;57.996;56.290;2023-09-19T06:42:56;0.45;;;0.38;;
70663;SDS011;58237;57.996;56.290;2023-09-19T06:45:22;0.77;;;0.40;;
70663;SDS011;58237;57.996;56.290;2023-09-19T06:47:49;0.65;;;0.40;;
70663;SDS011;58237;57.996;56.290;2023-09-19T06:50:15;0.57;;;0.35;;
70663;SDS011;58237;57.996;56.290;2023-09-19T06:52:44;1.25;;;0.40;;
70663;SDS011;58237;57.996;56.290;2023-09-19T06:55:11;1.33;;;0.40;;
70663;SDS011;58237;57.996;56.290;2023-09-19T06:57:39;0.82;;;0.38;;
70663;SDS011;58237;57.996;56.290;2023-09-19T07:00:06;1.52;;;0.40;;
70663;SDS011;58237;57.996;56.290;2023-09-19T07:02:45;2.45;;;0.40;;
70663;SDS011;58237;57.996;56.290;2023-09-19T07:05:10;1.17;;;0.40;;
70663;SDS011;58237;57.996;56.290;2023-09-19T07:07:36;0.75;;;0.40;;
70663;SDS011;58237;57.996;56.290;2023-09-19T07:10:02;1.10;;;0.40;;
70663;SDS011;58237;57.996;56.290;2023-09-19T07:12:31;1.08;;;0.50;;
70663;SDS011;58237;57.996;56.290;2023-09-19T07:14:58;2.40;;;0.40;;
70663;SDS011;58237;57.996;56.290;2023-09-19T07:17:24;0.63;;;0.30;;
70663;SDS011;58237;57.996;56.290;2023-09-19T07:19:50;1.00;;;0.40;;
70663;SDS011;58237;57.996;56.290;2023-09-19T07:22:16;0.95;;;0.60;;
70663;SDS011;58237;57.996;56.290;2023-09-19T07:24:41;1.92;;;0.50;;
70663;SDS011;58237;57.996;56.290;2023-09-19T07:27:08;1.15;;;0.40;;
70663;SDS011;58237;57.996;56.290;2023-09-19T07:29:34;0.40;;;0.30;;
70663;SDS011;58237;57.996;56.290;2023-09-19T07:32:00;1.98;;;0.73;;
70663;SDS011;58237;57.996;56.290;2023-09-19T07:34:25;1.73;;;0.60;;
70663;SDS011;58237;57.996;56.290;2023-09-19T07:36:51;1.95;;;0.52;;
70663;SDS011;58237;57.996;56.290;2023-09-19T07:39:17;1.25;;;0.45;;
70663;SDS011;58237;57.996;56.290;2023-09-19T07:41:43;0.77;;;0.40;;
70663;SDS011;58237;57.996;56.290;2023-09-19T07:44:08;1.90;;;0.50;;
70663;SDS011;58237;57.996;56.290;2023-09-19T07:46:35;0.45;;;0.40;;
70663;SDS011;58237;57.996;56.290;2023-09-19T07:49:01;0.70;;;0.40;;
70663;SDS011;58237;57.996;56.290;2023-09-19T07:51:27;1.08;;;0.40;;
70663;SDS011;58237;57.996;56.290;2023-09-19T07:53:53;0.77;;;0.50;;
70663;SDS011;58237;57.996;56.290;2023-09-19T07:56:20;1.25;;;0.60;;
70663;SDS011;58237;57.996;56.290;2023-09-19T07:58:46;3.70;;;0.47;;
70663;SDS011;58237;57.996;56.290;2023-09-19T08:01:12;2.58;;;0.55;;
70663;SDS011;58237;57.996;56.290;2023-09-19T08:03:40;1.83;;;0.50;;
70663;SDS011;58237;57.996;56.290;2023-09-19T08:06:07;4.18;;;0.52;;
70663;SDS011;58237;57.996;56.290;2023-09-19T08:08:33;0.93;;;0.38;;
70663;SDS011;58237;57.996;56.290;2023-09-19T08:11:08;1.08;;;0.40;;
70663;SDS011;58237;57.996;56.290;2023-09-19T08:13:39;1.33;;;0.43;;
70663;SDS011;58237;57.996;56.290;2023-09-19T08:16:12;1.85;;;0.45;;
70663;SDS011;58237;57.996;56.290;2023-09-19T08:18:38;0.65;;;0.40;;
70663;SDS011;58237;57.996;56.290;2023-09-19T08:21:06;1.83;;;0.50;;
70663;SDS011;58237;57.996;56.290;2023-09-19T08:23:37;0.50;;;0.40;;
70663;SDS011;58237;57.996;56.290;2023-09-19T08:26:04;1.13;;;0.45;;
70663;SDS011;58237;57.996;56.290;2023-09-19T08:28:34;1.48;;;0.50;;
70663;SDS011;58237;57.996;56.290;2023-09-19T08:31:03;2.88;;;0.50;;
70663;SDS011;58237;57.996;56.290;2023-09-19T08:33:33;0.95;;;0.40;;
70663;SDS011;58237;57.996;56.290;2023-09-19T08:35:59;0.73;;;0.40;;
70663;SDS011;58237;57.996;56.290;2023-09-19T08:38:25;1.30;;;0.50;;
70663;SDS011;58237;57.996;56.290;2023-09-19T08:40:58;1.40;;;0.52;;
70663;SDS011;58237;57.996;56.290;2023-09-19T08:43:25;1.52;;;0.70;;
70663;SDS011;58237;57.996;56.290;2023-09-19T08:45:53;1.98;;;0.70;;
70663;SDS011;58237;57.996;56.290;2023-09-19T08:48:23;2.20;;;0.70;;
70663;SDS011;58237;57.996;56.290;2023-09-19T08:50:50;1.25;;;0.50;;
70663;SDS011;58237;57.996;56.290;2023-09-19T08:53:21;2.30;;;0.70;;
70663;SDS011;58237;57.996;56.290;2023-09-19T08:55:49;1.67;;;0.50;;
70663;SDS011;58237;57.996;56.290;2023-09-19T08:58:19;1.77;;;0.63;;
70663;SDS011;58237;57.996;56.290;2023-09-19T09:00:47;1.02;;;0.52;;
70663;SDS011;58237;57.996;56.290;2023-09-19T09:03:15;2.80;;;0.65;;
70663;SDS011;58237;57.996;56.290;2023-09-19T09:05:41;2.10;;;0.60;;
70663;SDS011;58237;57.996;56.290;2023-09-19T09:08:11;1.95;;;0.70;;
70663;SDS011;58237;57.996;56.290;2023-09-19T09:10:37;1.23;;;0.60;;
70663;SDS011;58237;57.996;56.290;2023-09-19T09:13:03;5.00;;;0.82;;
70663;SDS011;58237;57.996;56.290;2023-09-19T09:15:34;6.25;;;1.10;;
70663;SDS011;58237;57.996;56.290;2023-09-19T09:18:00;3.65;;;0.93;;
70663;SDS011;58237;57.996;56.290;2023-09-19T09:20:28;2.90;;;0.65;;
70663;SDS011;58237;57.996;56.290;2023-09-19T09:22:54;1.58;;;0.63;;
70663;SDS011;58237;57.996;56.290;2023-09-19T09:25:20;1.50;;;0.60;;
70663;SDS011;58237;57.996;56.290;2023-09-19T09:28:01;1.13;;;0.50;;
70663;SDS011;58237;57.996;56.290;2023-09-19T09:30:34;1.80;;;0.70;;
70663;SDS011;58237;57.996;56.290;2023-09-19T09:33:13;0.88;;;0.40;;
70663;SDS011;58237;57.996;56.290;2023-09-19T09:35:49;2.90;;;0.65;;
70663;SDS011;58237;57.996;56.290;2023-09-19T09:38:19;1.92;;;0.70;;
70663;SDS011;58237;57.996;56.290;2023-09-19T09:40:45;2.25;;;0.63;;
70663;SDS011;58237;57.996;56.290;2023-09-19T09:43:28;1.50;;;0.73;;
70663;SDS011;58237;57.996;56.290;2023-09-19T09:46:11;2.17;;;0.75;;
70663;SDS011;58237;57.996;56.290;2023-09-19T09:49:00;2.45;;;0.90;;
70663;SDS011;58237;57.996;56.290;2023-09-19T09:51:37;0.68;;;0.45;;
70663;SDS011;58237;57.996;56.290;2023-09-19T09:54:16;1.67;;;0.63;;
70663;SDS011;58237;57.996;56.290;2023-09-19T09:56:58;2.83;;;0.82;;
70663;SDS011;58237;57.996;56.290;2023-09-19T10:02:18;1.27;;;0.50;;
70663;SDS011;58237;57.996;56.290;2023-09-19T10:04:50;4.22;;;0.82;;
70663;SDS011;58237;57.996;56.290;2023-09-19T10:10:29;1.88;;;0.63;;
70663;SDS011;58237;57.996;56.290;2023-09-19T10:12:55;1.80;;;0.45;;
70663;SDS011;58237;57.996;56.290;2023-09-19T10:15:28;1.00;;;0.50;;
70663;SDS011;58237;57.996;56.290;2023-09-19T10:17:57;1.02;;;0.50;;
70663;SDS011;58237;57.996;56.290;2023-09-19T10:20:26;1.63;;;0.70;;
70663;SDS011;58237;57.996;56.290;2023-09-19T10:23:01;1.85;;;0.52;;
70663;SDS011;58237;57.996;56.290;2023-09-19T10:25:29;1.83;;;0.40;;
70663;SDS011;58237;57.996;56.290;2023-09-19T10:27:56;1.05;;;0.50;;
70663;SDS011;58237;57.996;56.290;2023-09-19T10:30:24;2.45;;;0.93;;
70663;SDS011;58237;57.996;56.290;2023-09-19T10:32:53;1.17;;;0.60;;
70663;SDS011;58237;57.996;56.290;2023-09-19T10:35:22;2.08;;;0.50;;
70663;SDS011;58237;57.996;56.290;2023-09-19T10:37:49;0.80;;;0.50;;
70663;SDS011;58237;57.996;56.290;2023-09-19T10:40:15;1.00;;;0.45;;
70663;SDS011;58237;57.996;56.290;2023-09-19T10:42:42;1.27;;;0.40;;
70663;SDS011;58237;57.996;56.290;2023-09-19T10:45:10;1.52;;;0.63;;
70663;SDS011;58237;57.996;56.290;2023-09-19T10:47:39;1.40;;;0.50;;
70663;SDS011;58237;57.996;56.290;2023-09-19T10:50:05;2.17;;;0.80;;
70663;SDS011;58237;57.996;56.290;2023-09-19T10:52:31;1.17;;;0.50;;
70663;SDS011;58237;57.996;56.290;2023-09-19T10:55:00;1.52;;;0.60;;
70663;SDS011;58237;57.996;56.290;2023-09-19T10:57:26;3.47;;;0.70;;
70663;SDS011;58237;57.996;56.290;2023-09-19T11:00:07;0.73;;;0.40;;
70663;SDS011;58237;57.996;56.290;2023-09-19T11:05:33;2.22;;;0.50;;
70663;SDS011;58237;57.996;56.290;2023-09-19T11:07:59;0.43;;;0.40;;
70663;SDS011;58237;57.996;56.290;2023-09-19T11:10:48;0.55;;;0.45;;
70663;SDS011;58237;57.996;56.290;2023-09-19T11:13:32;3.08;;;0.85;;
70663;SDS011;58237;57.996;56.290;2023-09-19T11:16:03;9.82;;;1.15;;
70663;SDS011;58237;57.996;56.290;2023-09-19T11:26:41;0.90;;;0.50;;
70663;SDS011;58237;57.996;56.290;2023-09-19T11:29:25;1.73;;;0.50;;
70663;SDS011;58237;57.996;56.290;2023-09-19T11:31:52;2.85;;;0.70;;
70663;SDS011;58237;57.996;56.290;2023-09-19T11:39:39;3.80;;;0.55;;
70663;SDS011;58237;57.996;56.290;2023-09-19T11:44:52;0.85;;;0.68;;
70663;SDS011;58237;57.996;56.290;2023-09-19T11:47:30;2.88;;;1.58;;
70663;SDS011;58237;57.996;56.290;2023-09-19T11:49:57;1.73;;;0.60;;
70663;SDS011;58237;57.996;56.290;2023-09-19T11:52:30;0.82;;;0.43;;
70663;SDS011;58237;57.996;56.290;2023-09-19T11:55:03;1.08;;;0.47;;
70663;SDS011;58237;57.996;56.290;2023-09-19T11:57:29;1.35;;;0.55;;
70663;SDS011;58237;57.996;56.290;2023-09-19T11:59:55;2.78;;;0.60;;
70663;SDS011;58237;57.996;56.290;2023-09-19T12:02:42;1.15;;;0.43;;
70663;SDS011;58237;57.996;56.290;2023-09-19T12:05:07;3.30;;;0.70;;
70663;SDS011;58237;57.996;56.290;2023-09-19T12:07:41;1.40;;;0.52;;
70663;SDS011;58237;57.996;56.290;2023-09-19T12:10:07;1.15;;;0.50;;
70663;SDS011;58237;57.996;56.290;2023-09-19T12:12:36;2.83;;;0.93;;
70663;SDS011;58237;57.996;56.290;2023-09-19T12:15:02;1.90;;;0.50;;
70663;SDS011;58237;57.996;56.290;2023-09-19T12:17:39;1.13;;;0.50;;
70663;SDS011;58237;57.996;56.290;2023-09-19T12:20:06;1.75;;;0.60;;
70663;SDS011;58237;57.996;56.290;2023-09-19T12:22:39;1.50;;;0.60;;
70663;SDS011;58237;57.996;56.290;2023-09-19T12:25:07;1.38;;;0.60;;
70663;SDS011;58237;57.996;56.290;2023-09-19T12:27:42;0.88;;;0.50;;
70663;SDS011;58237;57.996;56.290;2023-09-19T12:30:09;1.38;;;0.60;;
70663;SDS011;58237;57.996;56.290;2023-09-19T12:32:35;2.38;;;0.57;;
70663;SDS011;58237;57.996;56.290;2023-09-19T12:35:01;1.80;;;0.60;;
70663;SDS011;58237;57.996;56.290;2023-09-19T12:37:32;1.55;;;0.70;;
70663;SDS011;58237;57.996;56.290;2023-09-19T12:40:07;1.65;;;0.60;;
70663;SDS011;58237;57.996;56.290;2023-09-19T12:42:47;1.73;;;0.65;;
70663;SDS011;58237;57.996;56.290;2023-09-19T12:45:13;2.05;;;0.75;;
70663;SDS011;58237;57.996;56.290;2023-09-19T12:47:40;2.15;;;0.80;;
70663;SDS011;58237;57.996;56.290;2023-09-19T12:50:26;1.08;;;0.50;;
70663;SDS011;58237;57.996;56.290;2023-09-19T12:52:55;1.40;;;0.60;;
70663;SDS011;58237;57.996;56.290;2023-09-19T12:55:22;1.77;;;0.60;;
70663;SDS011;58237;57.996;56.290;2023-09-19T12:57:58;2.25;;;0.80;;
70663;SDS011;58237;57.996;56.290;2023-09-19T13:00:34;1.33;;;0.50;;
70663;SDS011;58237;57.996;56.290;2023-09-19T13:05:58;1.30;;;0.50;;
70663;SDS011;58237;57.996;56.290;2023-09-19T13:08:34;1.45;;;0.57;;
70663;SDS011;58237;57.996;56.290;2023-09-19T13:11:05;1.98;;;0.60;;
70663;SDS011;58237;57.996;56.290;2023-09-19T13:13:44;1.55;;;0.60;;
70663;SDS011;58237;57.996;56.290;2023-09-19T13:16:11;2.05;;;0.73;;
70663;SDS011;58237;57.996;56.290;2023-09-19T13:19:13;1.33;;;0.43;;
70663;SDS011;58237;57.996;56.290;2023-09-19T13:21:32;2.80;;;0.70;;
70663;SDS011;58237;57.996;56.290;2023-09-19T13:24:24;2.47;;;0.82;;
70663;SDS011;58237;57.996;56.290;2023-09-19T13:26:56;1.52;;;0.70;;
70663;SDS011;58237;57.996;56.290;2023-09-19T13:29:22;1.23;;;0.50;;
70663;SDS011;58237;57.996;56.290;2023-09-19T13:31:48;2.42;;;0.60;;
70663;SDS011;58237;57.996;56.290;2023-09-19T13:34:14;1.27;;;0.50;;
70663;SDS011;58237;57.996;56.290;2023-09-19T13:36:42;2.83;;;0.55;;
70663;SDS011;58237;57.996;56.290;2023-09-19T13:39:08;1.35;;;0.65;;
70663;SDS011;58237;57.996;56.290;2023-09-19T13:41:35;1.63;;;0.60;;
70663;SDS011;58237;57.996;56.290;2023-09-19T13:44:02;2.35;;;0.50;;
70663;SDS011;58237;57.996;56.290;2023-09-19T13:46:28;2.00;;;0.50;;
70663;SDS011;58237;57.996;56.290;2023-09-19T13:48:53;1.23;;;0.50;;
70663;SDS011;58237;57.996;56.290;2023-09-19T13:51:27;1.48;;;0.70;;
70663;SDS011;58237;57.996;56.290;2023-09-19T13:53:54;2.35;;;0.65;;
70663;SDS011;58237;57.996;56.290;2023-09-19T13:56:19;1.80;;;0.60;;
70663;SDS011;58237;57.996;56.290;2023-09-19T13:58:45;2.28;;;0.50;;
70663;SDS011;58237;57.996;56.290;2023-09-19T14:01:11;1.80;;;0.70;;
70663;SDS011;58237;57.996;56.290;2023-09-19T14:03:38;1.42;;;0.55;;
70663;SDS011;58237;57.996;56.290;2023-09-19T14:06:04;1.85;;;0.55;;
70663;SDS011;58237;57.996;56.290;2023-09-19T14:08:30;1.17;;;0.50;;
70663;SDS011;58237;57.996;56.290;2023-09-19T14:10:56;1.52;;;0.50;;
70663;SDS011;58237;57.996;56.290;2023-09-19T14:13:21;1.83;;;0.47;;
70663;SDS011;58237;57.996;56.290;2023-09-19T14:15:47;1.55;;;0.57;;
70663;SDS011;58237;57.996;56.290;2023-09-19T14:18:12;1.48;;;0.50;;
70663;SDS011;58237;57.996;56.290;2023-09-19T14:20:38;1.25;;;0.50;;
70663;SDS011;58237;57.996;56.290;2023-09-19T14:23:07;1.60;;;0.50;;
70663;SDS011;58237;57.996;56.290;2023-09-19T14:25:35;1.00;;;0.50;;
70663;SDS011;58237;57.996;56.290;2023-09-19T14:28:02;0.60;;;0.40;;
70663;SDS011;58237;57.996;56.290;2023-09-19T14:30:27;1.55;;;0.70;;
70663;SDS011;58237;57.996;56.290;2023-09-19T14:32:53;0.85;;;0.40;;
70663;SDS011;58237;57.996;56.290;2023-09-19T14:35:19;2.45;;;0.70;;
70663;SDS011;58237;57.996;56.290;2023-09-19T14:37:44;1.60;;;0.93;;
70663;SDS011;58237;57.996;56.290;2023-09-19T14:40:11;1.38;;;0.40;;
70663;SDS011;58237;57.996;56.290;2023-09-19T14:42:39;0.88;;;0.40;;
70663;SDS011;58237;57.996;56.290;2023-09-19T14:45:05;1.85;;;0.50;;
70663;SDS011;58237;57.996;56.290;2023-09-19T14:47:32;1.27;;;0.45;;
70663;SDS011;58237;57.996;56.290;2023-09-19T14:50:00;0.68;;;0.40;;
70663;SDS011;58237;57.996;56.290;2023-09-19T14:52:26;1.90;;;0.50;;
70663;SDS011;58237;57.996;56.290;2023-09-19T14:54:53;3.97;;;0.77;;
70663;SDS011;58237;57.996;56.290;2023-09-19T14:57:19;3.03;;;0.70;;
70663;SDS011;58237;57.996;56.290;2023-09-19T14:59:45;1.25;;;0.70;;
70663;SDS011;58237;57.996;56.290;2023-09-19T15:02:11;1.25;;;0.60;;
70663;SDS011;58237;57.996;56.290;2023-09-19T15:04:36;2.08;;;0.60;;
70663;SDS011;58237;57.996;56.290;2023-09-19T15:07:06;3.20;;;0.77;;
70663;SDS011;58237;57.996;56.290;2023-09-19T15:09:31;1.27;;;0.55;;
70663;SDS011;58237;57.996;56.290;2023-09-19T15:11:59;1.67;;;0.70;;
70663;SDS011;58237;57.996;56.290;2023-09-19T15:14:24;1.80;;;0.60;;
70663;SDS011;58237;57.996;56.290;2023-09-19T15:16:54;1.92;;;0.63;;
70663;SDS011;58237;57.996;56.290;2023-09-19T15:19:20;1.77;;;0.57;;
70663;SDS011;58237;57.996;56.290;2023-09-19T15:21:48;3.30;;;0.80;;